createdAt,value
2018-08-25T00:00:19.136Z,54.27
2018-08-25T00:00:50.724Z,54.29
2018-08-25T00:01:22.313Z,54.33
2018-08-25T00:01:53.900Z,54.46
2018-08-25T00:02:25.488Z,54.43
2018-08-25T00:02:57.089Z,54.41
2018-08-25T00:03:28.666Z,54.40
2018-08-25T00:04:00.252Z,54.42
2018-08-25T00:04:31.859Z,54.50
2018-08-25T00:05:03.465Z,54.64
2018-08-25T00:05:35.052Z,54.58
2018-08-25T00:06:06.644Z,54.65
2018-08-25T00:06:38.237Z,54.71
2018-08-25T00:07:09.846Z,54.73
2018-08-25T00:07:41.426Z,54.84
2018-08-25T00:08:13.012Z,54.79
2018-08-25T00:08:44.599Z,54.81
2018-08-25T00:09:16.188Z,54.79
2018-08-25T00:09:47.812Z,54.75
2018-08-25T00:10:19.470Z,54.79
2018-08-25T00:10:51.113Z,54.73
2018-08-25T00:11:22.705Z,54.76
2018-08-25T00:11:54.306Z,54.73
2018-08-25T00:12:25.900Z,54.63
2018-08-25T00:12:57.501Z,54.59
2018-08-25T00:13:29.106Z,54.65
2018-08-25T00:14:00.701Z,54.50
2018-08-25T00:14:32.296Z,54.53
2018-08-25T00:15:03.874Z,54.55
2018-08-25T00:15:35.508Z,54.44
2018-08-25T00:16:07.155Z,54.41
2018-08-25T00:16:38.743Z,54.42
2018-08-25T00:17:10.341Z,54.40
2018-08-25T00:17:41.933Z,54.38
2018-08-25T00:18:13.534Z,54.30
2018-08-25T00:18:45.124Z,54.21
2018-08-25T00:19:16.726Z,54.26
2018-08-25T00:19:48.318Z,54.22
2018-08-25T00:20:19.910Z,54.34
2018-08-25T00:20:51.555Z,55.38
2018-08-25T00:21:23.157Z,56.68
2018-08-25T00:21:54.764Z,57.11
2018-08-25T00:22:26.359Z,57.73
2018-08-25T00:22:57.953Z,57.86
2018-08-25T00:23:29.534Z,57.65
2018-08-25T00:24:01.114Z,56.87
2018-08-25T00:24:32.718Z,56.32
2018-08-25T00:25:04.383Z,55.99
2018-08-25T00:25:35.962Z,55.80
2018-08-25T00:26:07.549Z,55.57
2018-08-25T00:26:39.140Z,55.49
2018-08-25T00:27:10.748Z,55.46
2018-08-25T00:27:42.340Z,55.36
2018-08-25T00:28:13.922Z,55.37
2018-08-25T00:28:45.512Z,55.22
2018-08-25T00:29:17.114Z,55.25
2018-08-25T00:29:48.718Z,55.30
2018-08-25T00:30:20.360Z,55.39
2018-08-25T00:30:51.948Z,55.25
2018-08-25T00:31:23.527Z,55.28
2018-08-25T00:31:55.130Z,55.29
2018-08-25T00:32:26.711Z,55.34
2018-08-25T00:32:58.299Z,55.30
2018-08-25T00:33:29.884Z,55.24
2018-08-25T00:34:01.506Z,55.41
2018-08-25T00:34:33.120Z,55.37
2018-08-25T00:35:04.694Z,55.47
2018-08-25T00:35:36.321Z,55.33
2018-08-25T00:36:07.922Z,55.35
2018-08-25T00:36:39.516Z,55.28
2018-08-25T00:37:11.120Z,55.22
2018-08-25T00:37:42.722Z,55.33
2018-08-25T00:38:14.308Z,55.30
2018-08-25T00:38:45.899Z,55.33
2018-08-25T00:39:17.487Z,55.35
2018-08-25T00:39:49.116Z,55.22
2018-08-25T00:40:20.719Z,55.13
2018-08-25T00:40:52.304Z,55.22
2018-08-25T00:41:23.905Z,55.19
2018-08-25T00:41:55.492Z,55.26
2018-08-25T00:42:27.085Z,55.34
2018-08-25T00:42:58.747Z,55.35
2018-08-25T00:43:30.326Z,55.48
2018-08-25T00:44:01.930Z,55.53
2018-08-25T00:44:33.530Z,55.56
2018-08-25T00:45:05.138Z,55.54
2018-08-25T00:45:36.727Z,55.63
2018-08-25T00:46:08.326Z,55.82
2018-08-25T00:46:39.934Z,55.71
2018-08-25T00:47:11.545Z,55.66
2018-08-25T00:47:43.185Z,55.54
2018-08-25T00:48:14.811Z,55.55
2018-08-25T00:48:46.414Z,55.54
2018-08-25T00:49:18.022Z,55.31
2018-08-25T00:49:49.616Z,55.42
2018-08-25T00:50:21.248Z,55.37
2018-08-25T00:50:52.826Z,55.39
2018-08-25T00:51:24.434Z,55.31
2018-08-25T00:51:56.043Z,55.40
2018-08-25T00:52:27.636Z,55.40
2018-08-25T00:52:59.231Z,55.34
2018-08-25T00:53:30.806Z,55.39
2018-08-25T00:54:02.386Z,55.35
2018-08-25T00:54:33.994Z,55.23
2018-08-25T00:55:05.590Z,55.25
2018-08-25T00:55:37.183Z,55.33
2018-08-25T00:56:08.776Z,55.37
2018-08-25T00:56:40.360Z,55.41
2018-08-25T00:57:11.940Z,55.17
2018-08-25T00:57:43.545Z,55.12
2018-08-25T00:58:15.132Z,55.04
2018-08-25T00:58:46.760Z,55.04
2018-08-25T00:59:18.375Z,54.89
2018-08-25T00:59:49.998Z,55.00
2018-08-25T01:00:21.589Z,55.04
2018-08-25T01:00:53.167Z,55.04
2018-08-25T01:01:24.773Z,54.92
2018-08-25T01:01:56.369Z,54.89
2018-08-25T01:02:27.964Z,54.85
2018-08-25T01:02:59.552Z,54.79
2018-08-25T01:03:31.162Z,54.81
2018-08-25T01:04:02.809Z,54.87
2018-08-25T01:04:34.396Z,54.91
2018-08-25T01:05:05.984Z,54.96
2018-08-25T01:05:37.582Z,55.02
2018-08-25T01:06:09.172Z,55.09
2018-08-25T01:06:40.780Z,55.21
2018-08-25T01:07:12.362Z,55.12
2018-08-25T01:07:43.960Z,55.17
2018-08-25T01:08:15.534Z,55.25
2018-08-25T01:08:47.154Z,55.30
2018-08-25T01:09:18.755Z,55.34
2018-08-25T01:09:50.362Z,55.33
2018-08-25T01:10:21.951Z,55.37
2018-08-25T01:10:53.549Z,55.38
2018-08-25T01:11:25.144Z,55.46
2018-08-25T01:11:56.758Z,55.31
2018-08-25T01:12:28.363Z,55.46
2018-08-25T01:12:59.966Z,55.46
2018-08-25T01:13:31.572Z,55.44
2018-08-25T01:14:03.190Z,55.60
2018-08-25T01:14:34.798Z,55.64
2018-08-25T01:15:06.405Z,55.63
2018-08-25T01:15:38.061Z,55.50
2018-08-25T01:16:09.627Z,55.54
2018-08-25T01:16:41.250Z,55.41
2018-08-25T01:17:12.850Z,55.59
2018-08-25T01:17:44.450Z,55.42
2018-08-25T01:18:16.036Z,55.43
2018-08-25T01:18:47.633Z,55.28
2018-08-25T01:19:19.220Z,55.30
2018-08-25T01:19:50.802Z,55.35
2018-08-25T01:20:22.398Z,55.36
2018-08-25T01:20:53.983Z,55.33
2018-08-25T01:21:25.568Z,55.42
2018-08-25T01:21:57.158Z,55.45
2018-08-25T01:22:28.737Z,55.47
2018-08-25T01:23:00.325Z,55.50
2018-08-25T01:23:31.919Z,55.43
2018-08-25T01:24:03.508Z,55.43
2018-08-25T01:24:35.096Z,55.47
2018-08-25T01:25:06.687Z,55.56
2018-08-25T01:25:38.339Z,55.50
2018-08-25T01:26:09.937Z,55.47
2018-08-25T01:26:41.532Z,55.60
2018-08-25T01:27:13.124Z,56.03
2018-08-25T01:27:44.712Z,55.51
2018-08-25T01:28:16.313Z,55.27
2018-08-25T01:28:47.904Z,55.21
2018-08-25T01:29:19.489Z,55.23
2018-08-25T01:29:51.070Z,55.21
2018-08-25T01:30:22.656Z,55.15
2018-08-25T01:30:54.258Z,55.08
2018-08-25T01:31:25.848Z,55.08
2018-08-25T01:31:57.451Z,55.04
2018-08-25T01:32:29.057Z,54.98
2018-08-25T01:33:00.661Z,54.88
2018-08-25T01:33:32.266Z,54.81
2018-08-25T01:34:03.859Z,54.72
2018-08-25T01:34:35.462Z,54.78
2018-08-25T01:35:07.070Z,54.74
2018-08-25T01:35:38.718Z,54.65
2018-08-25T01:36:10.321Z,54.73
2018-08-25T01:36:41.944Z,54.74
2018-08-25T01:37:13.540Z,54.82
2018-08-25T01:37:45.147Z,54.76
2018-08-25T01:38:16.736Z,54.75
2018-08-25T01:38:48.324Z,54.72
2018-08-25T01:39:19.927Z,54.66
2018-08-25T01:39:51.517Z,54.75
2018-08-25T01:40:23.165Z,54.65
2018-08-25T01:40:54.770Z,54.70
2018-08-25T01:41:26.375Z,54.81
2018-08-25T01:41:57.959Z,54.89
2018-08-25T01:42:29.549Z,54.85
2018-08-25T01:43:01.154Z,54.73
2018-08-25T01:43:32.745Z,54.73
2018-08-25T01:44:04.342Z,54.68
2018-08-25T01:44:35.946Z,54.61
2018-08-25T01:45:07.550Z,54.65
2018-08-25T01:45:39.154Z,54.68
2018-08-25T01:46:10.740Z,54.65
2018-08-25T01:46:42.328Z,54.68
2018-08-25T01:47:13.931Z,54.78
2018-08-25T01:47:45.519Z,54.75
2018-08-25T01:48:17.126Z,54.73
2018-08-25T01:48:48.716Z,54.65
2018-08-25T01:49:20.324Z,54.91
2018-08-25T01:49:51.943Z,54.63
2018-08-25T01:50:23.544Z,54.48
2018-08-25T01:50:55.183Z,54.46
2018-08-25T01:51:26.772Z,54.55
2018-08-25T01:51:58.360Z,54.64
2018-08-25T01:52:29.942Z,54.56
2018-08-25T01:53:01.522Z,54.54
2018-08-25T01:53:33.098Z,54.57
2018-08-25T01:54:04.692Z,54.59
2018-08-25T01:54:36.270Z,54.63
2018-08-25T01:55:07.860Z,54.63
2018-08-25T01:55:39.448Z,54.65
2018-08-25T01:56:11.075Z,54.64
2018-08-25T01:56:42.664Z,54.68
2018-08-25T01:57:14.270Z,54.63
2018-08-25T01:57:45.890Z,54.76
2018-08-25T01:58:17.480Z,54.66
2018-08-25T01:58:49.073Z,54.65
2018-08-25T01:59:20.671Z,54.67
2018-08-25T01:59:52.273Z,54.55
2018-08-25T02:00:23.864Z,54.61
2018-08-25T02:00:55.466Z,54.64
2018-08-25T02:01:27.092Z,54.63
2018-08-25T02:01:58.671Z,54.61
2018-08-25T02:02:30.270Z,54.61
2018-08-25T02:03:01.900Z,54.61
2018-08-25T02:03:33.493Z,54.68
2018-08-25T02:04:05.098Z,54.68
2018-08-25T02:04:36.696Z,54.72
2018-08-25T02:05:08.285Z,54.82
2018-08-25T02:05:39.869Z,54.65
2018-08-25T02:06:11.450Z,54.70
2018-08-25T02:06:43.098Z,54.78
2018-08-25T02:07:14.688Z,54.75
2018-08-25T02:07:46.287Z,54.52
2018-08-25T02:08:17.880Z,54.51
2018-08-25T02:08:49.486Z,54.63
2018-08-25T02:09:21.076Z,54.61
2018-08-25T02:09:52.664Z,54.69
2018-08-25T02:10:24.266Z,54.67
2018-08-25T02:10:55.860Z,54.67
2018-08-25T02:11:27.453Z,54.68
2018-08-25T02:11:59.045Z,54.65
2018-08-25T02:12:30.635Z,54.56
2018-08-25T02:13:02.238Z,54.66
2018-08-25T02:13:33.864Z,54.65
2018-08-25T02:14:05.446Z,54.61
2018-08-25T02:14:37.053Z,54.67
2018-08-25T02:15:08.658Z,54.69
2018-08-25T02:15:40.253Z,54.53
2018-08-25T02:16:11.884Z,54.68
2018-08-25T02:16:43.481Z,54.65
2018-08-25T02:17:15.088Z,54.65
2018-08-25T02:17:46.667Z,54.65
2018-08-25T02:18:18.449Z,54.64
2018-08-25T02:18:50.039Z,54.67
2018-08-25T02:19:21.615Z,54.64
2018-08-25T02:19:53.222Z,54.66
2018-08-25T02:20:24.849Z,54.61
2018-08-25T02:20:56.431Z,54.64
2018-08-25T02:21:28.052Z,54.54
2018-08-25T02:21:59.640Z,54.48
2018-08-25T02:22:31.232Z,54.47
2018-08-25T02:23:02.838Z,54.41
2018-08-25T02:23:34.414Z,54.33
2018-08-25T02:24:06.014Z,54.33
2018-08-25T02:24:37.635Z,54.33
2018-08-25T02:25:09.239Z,54.35
2018-08-25T02:25:40.832Z,54.23
2018-08-25T02:26:12.425Z,54.26
2018-08-25T02:26:44.048Z,54.25
2018-08-25T02:27:15.635Z,54.09
2018-08-25T02:27:47.229Z,54.25
2018-08-25T02:28:18.910Z,54.30
2018-08-25T02:28:50.480Z,54.40
2018-08-25T02:29:22.111Z,54.34
2018-08-25T02:29:53.700Z,54.47
2018-08-25T02:30:25.310Z,54.46
2018-08-25T02:30:56.903Z,54.45
2018-08-25T02:31:28.492Z,54.53
2018-08-25T02:32:00.146Z,54.41
2018-08-25T02:32:31.736Z,54.36
2018-08-25T02:33:03.339Z,54.55
2018-08-25T02:33:34.929Z,54.38
2018-08-25T02:34:06.535Z,54.60
2018-08-25T02:34:38.142Z,54.48
2018-08-25T02:35:09.750Z,54.55
2018-08-25T02:35:41.344Z,54.64
2018-08-25T02:36:12.932Z,54.37
2018-08-25T02:36:44.521Z,54.35
2018-08-25T02:37:16.181Z,54.32
2018-08-25T02:37:47.780Z,54.30
2018-08-25T02:38:19.382Z,54.41
2018-08-25T02:38:51.083Z,54.34
2018-08-25T02:39:22.584Z,54.33
2018-08-25T02:39:54.176Z,54.30
2018-08-25T02:40:25.784Z,54.26
2018-08-25T02:40:57.372Z,54.24
2018-08-25T02:41:28.952Z,54.23
2018-08-25T02:42:00.533Z,54.25
2018-08-25T02:42:32.117Z,54.22
2018-08-25T02:43:03.703Z,54.23
2018-08-25T02:43:35.288Z,54.24
2018-08-25T02:44:06.862Z,54.17
2018-08-25T02:44:38.440Z,54.19
2018-08-25T02:45:10.028Z,54.26
2018-08-25T02:45:41.620Z,54.22
2018-08-25T02:46:13.222Z,54.21
2018-08-25T02:46:44.856Z,54.33
2018-08-25T02:47:16.460Z,54.30
2018-08-25T02:47:48.066Z,54.33
2018-08-25T02:48:19.674Z,54.47
2018-08-25T02:48:51.264Z,54.43
2018-08-25T02:49:22.865Z,54.34
2018-08-25T02:49:54.463Z,54.30
2018-08-25T02:50:26.048Z,54.30
2018-08-25T02:50:57.649Z,54.29
2018-08-25T02:51:29.249Z,54.33
2018-08-25T02:52:00.896Z,54.27
2018-08-25T02:52:32.487Z,54.20
2018-08-25T02:53:04.086Z,54.23
2018-08-25T02:53:35.691Z,54.32
2018-08-25T02:54:07.296Z,54.30
2018-08-25T02:54:38.874Z,54.35
2018-08-25T02:55:10.464Z,54.54
2018-08-25T02:55:42.066Z,54.41
2018-08-25T02:56:13.656Z,54.53
2018-08-25T02:56:45.274Z,54.45
2018-08-25T02:57:16.860Z,54.38
2018-08-25T02:57:48.467Z,54.39
2018-08-25T02:58:20.056Z,54.20
2018-08-25T02:58:51.661Z,54.27
2018-08-25T02:59:23.252Z,54.12
2018-08-25T02:59:54.844Z,53.99
2018-08-25T03:00:26.474Z,54.00
2018-08-25T03:00:58.094Z,54.04
2018-08-25T03:01:29.699Z,54.11
2018-08-25T03:02:01.383Z,54.05
2018-08-25T03:02:32.948Z,53.93
2018-08-25T03:03:04.542Z,53.92
2018-08-25T03:03:36.146Z,53.76
2018-08-25T03:04:07.755Z,53.78
2018-08-25T03:04:39.352Z,53.75
2018-08-25T03:05:11.002Z,53.78
2018-08-25T03:05:42.588Z,53.85
2018-08-25T03:06:14.194Z,53.80
2018-08-25T03:06:45.820Z,53.79
2018-08-25T03:07:17.415Z,53.87
2018-08-25T03:07:49.022Z,53.83
2018-08-25T03:08:20.616Z,53.89
2018-08-25T03:08:52.218Z,53.85
2018-08-25T03:09:23.821Z,53.77
2018-08-25T03:09:55.412Z,53.86
2018-08-25T03:10:26.991Z,53.80
2018-08-25T03:10:58.626Z,53.70
2018-08-25T03:11:30.295Z,53.55
2018-08-25T03:12:01.880Z,53.60
2018-08-25T03:12:33.481Z,53.63
2018-08-25T03:13:05.064Z,53.61
2018-08-25T03:13:36.687Z,53.53
2018-08-25T03:14:08.281Z,53.61
2018-08-25T03:14:39.858Z,53.63
2018-08-25T03:15:11.435Z,53.58
2018-08-25T03:15:43.025Z,53.65
2018-08-25T03:16:14.614Z,53.47
2018-08-25T03:16:46.256Z,53.50
2018-08-25T03:17:17.849Z,53.46
2018-08-25T03:17:49.446Z,53.48
2018-08-25T03:18:21.046Z,53.29
2018-08-25T03:18:52.650Z,53.34
2018-08-25T03:19:24.245Z,53.44
2018-08-25T03:19:55.832Z,53.52
2018-08-25T03:20:27.423Z,53.53
2018-08-25T03:20:59.054Z,53.45
2018-08-25T03:21:30.699Z,53.54
2018-08-25T03:22:02.346Z,53.63
2018-08-25T03:22:33.930Z,53.66
2018-08-25T03:23:05.525Z,53.65
2018-08-25T03:23:37.117Z,53.54
2018-08-25T03:24:08.718Z,53.58
2018-08-25T03:24:40.322Z,53.51
2018-08-25T03:25:11.916Z,53.66
2018-08-25T03:25:43.530Z,53.60
2018-08-25T03:26:15.133Z,53.72
2018-08-25T03:26:46.733Z,53.57
2018-08-25T03:27:18.338Z,53.63
2018-08-25T03:27:50.016Z,53.50
2018-08-25T03:28:21.604Z,53.58
2018-08-25T03:28:53.183Z,53.60
2018-08-25T03:29:24.779Z,53.66
2018-08-25T03:29:56.373Z,53.61
2018-08-25T03:30:27.979Z,53.61
2018-08-25T03:30:59.572Z,53.39
2018-08-25T03:31:31.169Z,53.57
2018-08-25T03:32:02.760Z,53.53
2018-08-25T03:32:34.348Z,53.52
2018-08-25T03:33:06.010Z,53.45
2018-08-25T03:33:37.604Z,53.48
2018-08-25T03:34:09.193Z,53.48
2018-08-25T03:34:40.780Z,53.57
2018-08-25T03:35:12.370Z,53.53
2018-08-25T03:35:43.959Z,53.63
2018-08-25T03:36:15.539Z,53.45
2018-08-25T03:36:47.114Z,53.62
2018-08-25T03:37:18.706Z,53.60
2018-08-25T03:37:50.282Z,53.59
2018-08-25T03:38:21.918Z,53.55
2018-08-25T03:38:53.508Z,53.68
2018-08-25T03:39:25.110Z,53.61
2018-08-25T03:39:56.702Z,53.68
2018-08-25T03:40:28.288Z,53.60
2018-08-25T03:40:59.881Z,53.58
2018-08-25T03:41:31.494Z,53.73
2018-08-25T03:42:03.084Z,53.44
2018-08-25T03:42:34.666Z,53.53
2018-08-25T03:43:06.337Z,53.58
2018-08-25T03:43:37.933Z,53.48
2018-08-25T03:44:09.534Z,53.57
2018-08-25T03:44:41.124Z,53.57
2018-08-25T03:45:12.721Z,53.46
2018-08-25T03:45:44.313Z,53.63
2018-08-25T03:46:15.892Z,53.56
2018-08-25T03:46:47.470Z,53.68
2018-08-25T03:47:19.056Z,53.65
2018-08-25T03:47:50.659Z,53.58
2018-08-25T03:48:22.284Z,53.60
2018-08-25T03:48:53.872Z,53.62
2018-08-25T03:49:25.464Z,53.55
2018-08-25T03:49:57.071Z,53.56
2018-08-25T03:50:28.674Z,53.58
2018-08-25T03:51:00.266Z,53.62
2018-08-25T03:51:31.866Z,53.55
2018-08-25T03:52:03.474Z,53.46
2018-08-25T03:52:35.064Z,53.53
2018-08-25T03:53:06.692Z,53.55
2018-08-25T03:53:38.297Z,53.42
2018-08-25T03:54:09.887Z,53.47
2018-08-25T03:54:41.476Z,53.36
2018-08-25T03:55:13.125Z,53.40
2018-08-25T03:55:44.701Z,53.40
2018-08-25T03:56:16.338Z,53.31
2018-08-25T03:56:47.942Z,53.34
2018-08-25T03:57:19.582Z,53.42
2018-08-25T03:57:51.195Z,53.39
2018-08-25T03:58:22.792Z,53.49
2018-08-25T03:58:54.390Z,53.48
2018-08-25T03:59:25.994Z,53.53
2018-08-25T03:59:57.594Z,53.48
2018-08-25T04:00:29.184Z,53.41
2018-08-25T04:01:00.772Z,53.65
2018-08-25T04:01:32.419Z,53.68
2018-08-25T04:02:03.986Z,53.64
2018-08-25T04:02:35.617Z,53.67
2018-08-25T04:03:07.208Z,53.52
2018-08-25T04:03:38.836Z,53.46
2018-08-25T04:04:10.438Z,53.38
2018-08-25T04:04:42.023Z,53.38
2018-08-25T04:05:13.612Z,53.42
2018-08-25T04:05:45.223Z,53.41
2018-08-25T04:06:16.829Z,53.45
2018-08-25T04:06:48.419Z,53.47
2018-08-25T04:07:20.012Z,53.48
2018-08-25T04:07:51.602Z,53.48
2018-08-25T04:08:23.196Z,53.46
2018-08-25T04:08:54.830Z,53.52
2018-08-25T04:09:26.434Z,53.50
2018-08-25T04:09:58.073Z,53.51
2018-08-25T04:10:29.640Z,53.50
2018-08-25T04:11:01.259Z,53.56
2018-08-25T04:11:32.856Z,53.50
2018-08-25T04:12:04.452Z,53.44
2018-08-25T04:12:36.071Z,53.50
2018-08-25T04:13:07.647Z,53.48
2018-08-25T04:13:39.255Z,53.42
2018-08-25T04:14:10.865Z,53.48
2018-08-25T04:14:42.450Z,53.41
2018-08-25T04:15:14.054Z,53.34
2018-08-25T04:15:45.658Z,53.46
2018-08-25T04:16:17.294Z,53.40
2018-08-25T04:16:48.885Z,53.46
2018-08-25T04:17:20.462Z,53.46
2018-08-25T04:17:52.052Z,53.45
2018-08-25T04:18:23.645Z,53.45
2018-08-25T04:18:55.240Z,53.46
2018-08-25T04:19:26.832Z,53.45
2018-08-25T04:19:58.472Z,53.48
2018-08-25T04:20:30.061Z,53.51
2018-08-25T04:21:01.649Z,53.53
2018-08-25T04:21:33.272Z,53.53
2018-08-25T04:22:04.923Z,53.52
2018-08-25T04:22:36.488Z,53.55
2018-08-25T04:23:08.095Z,53.49
2018-08-25T04:23:39.698Z,53.38
2018-08-25T04:24:11.306Z,53.40
2018-08-25T04:24:42.914Z,53.46
2018-08-25T04:25:14.556Z,53.59
2018-08-25T04:25:46.144Z,53.61
2018-08-25T04:26:17.746Z,53.51
2018-08-25T04:26:49.335Z,53.61
2018-08-25T04:27:20.920Z,53.65
2018-08-25T04:27:52.527Z,53.73
2018-08-25T04:28:24.106Z,53.66
2018-08-25T04:28:55.704Z,53.76
2018-08-25T04:29:27.314Z,53.65
2018-08-25T04:29:58.950Z,53.69
2018-08-25T04:30:30.575Z,53.70
2018-08-25T04:31:02.191Z,53.69
2018-08-25T04:31:33.794Z,53.75
2018-08-25T04:32:05.384Z,53.62
2018-08-25T04:32:36.972Z,53.72
2018-08-25T04:33:08.578Z,53.60
2018-08-25T04:33:40.168Z,53.71
2018-08-25T04:34:11.752Z,53.69
2018-08-25T04:34:43.344Z,53.66
2018-08-25T04:35:14.976Z,53.62
2018-08-25T04:35:46.565Z,53.79
2018-08-25T04:36:18.152Z,53.82
2018-08-25T04:36:49.731Z,53.74
2018-08-25T04:37:21.353Z,53.78
2018-08-25T04:37:52.954Z,53.76
2018-08-25T04:38:24.534Z,53.73
2018-08-25T04:38:56.120Z,53.75
2018-08-25T04:39:27.709Z,53.75
2018-08-25T04:39:59.299Z,53.81
2018-08-25T04:40:30.905Z,53.66
2018-08-25T04:41:02.514Z,53.77
2018-08-25T04:41:34.113Z,53.74
2018-08-25T04:42:05.704Z,53.81
2018-08-25T04:42:37.328Z,53.72
2018-08-25T04:43:08.917Z,53.86
2018-08-25T04:43:40.508Z,53.78
2018-08-25T04:44:12.100Z,53.76
2018-08-25T04:44:43.688Z,53.78
2018-08-25T04:45:15.290Z,53.74
2018-08-25T04:45:46.894Z,53.74
2018-08-25T04:46:18.498Z,53.78
2018-08-25T04:46:50.110Z,53.83
2018-08-25T04:47:21.740Z,53.83
2018-08-25T04:47:53.342Z,53.90
2018-08-25T04:48:24.936Z,53.91
2018-08-25T04:48:56.524Z,53.86
2018-08-25T04:49:28.156Z,53.86
2018-08-25T04:49:59.730Z,53.89
2018-08-25T04:50:31.334Z,53.86
2018-08-25T04:51:02.913Z,53.94
2018-08-25T04:51:34.514Z,53.78
2018-08-25T04:52:06.104Z,53.90
2018-08-25T04:52:37.711Z,53.77
2018-08-25T04:53:09.305Z,53.88
2018-08-25T04:53:40.903Z,53.88
2018-08-25T04:54:12.526Z,53.95
2018-08-25T04:54:44.186Z,53.90
2018-08-25T04:55:15.786Z,53.90
2018-08-25T04:55:47.379Z,53.96
2018-08-25T04:56:18.982Z,53.88
2018-08-25T04:56:50.585Z,53.68
2018-08-25T04:57:22.162Z,53.80
2018-08-25T04:57:53.762Z,53.82
2018-08-25T04:58:25.352Z,53.78
2018-08-25T04:58:56.954Z,53.88
2018-08-25T04:59:28.558Z,53.87
2018-08-25T05:00:00.188Z,53.91
2018-08-25T05:00:31.794Z,53.91
2018-08-25T05:01:03.400Z,54.01
2018-08-25T05:01:35.006Z,53.85
2018-08-25T05:02:06.596Z,53.89
2018-08-25T05:02:38.184Z,53.81
2018-08-25T05:03:09.806Z,53.90
2018-08-25T05:03:41.399Z,53.97
2018-08-25T05:04:12.985Z,54.03
2018-08-25T05:04:44.576Z,54.09
2018-08-25T05:05:16.196Z,54.09
2018-08-25T05:05:47.802Z,54.10
2018-08-25T05:06:19.399Z,54.15
2018-08-25T05:06:51.000Z,54.17
2018-08-25T05:07:22.590Z,54.21
2018-08-25T05:07:54.183Z,54.13
2018-08-25T05:08:25.788Z,54.08
2018-08-25T05:08:57.385Z,54.05
2018-08-25T05:09:29.010Z,54.04
2018-08-25T05:10:00.615Z,54.08
2018-08-25T05:10:32.270Z,54.07
2018-08-25T05:11:03.861Z,54.01
2018-08-25T05:11:35.453Z,54.15
2018-08-25T05:12:07.054Z,54.16
2018-08-25T05:12:38.650Z,54.06
2018-08-25T05:13:10.227Z,54.03
2018-08-25T05:13:41.802Z,54.04
2018-08-25T05:14:13.392Z,54.14
2018-08-25T05:14:45.047Z,53.96
2018-08-25T05:15:16.654Z,53.96
2018-08-25T05:15:48.262Z,54.07
2018-08-25T05:16:19.852Z,53.97
2018-08-25T05:16:51.440Z,53.96
2018-08-25T05:17:23.043Z,54.11
2018-08-25T05:17:54.636Z,53.98
2018-08-25T05:18:26.233Z,54.02
2018-08-25T05:18:57.825Z,54.08
2018-08-25T05:19:29.460Z,54.05
2018-08-25T05:20:01.063Z,54.18
2018-08-25T05:20:32.687Z,54.11
2018-08-25T05:21:04.294Z,54.05
2018-08-25T05:21:35.919Z,53.94
2018-08-25T05:22:07.535Z,53.90
2018-08-25T05:22:39.124Z,53.91
2018-08-25T05:23:10.742Z,53.91
2018-08-25T05:23:42.341Z,54.00
2018-08-25T05:24:13.933Z,53.94
2018-08-25T05:24:45.543Z,53.99
2018-08-25T05:25:17.150Z,53.94
2018-08-25T05:25:48.750Z,53.92
2018-08-25T05:26:20.348Z,54.06
2018-08-25T05:26:51.990Z,54.12
2018-08-25T05:27:23.629Z,54.05
2018-08-25T05:27:55.206Z,54.13
2018-08-25T05:28:26.800Z,54.13
2018-08-25T05:28:58.378Z,54.06
2018-08-25T05:29:29.991Z,54.13
2018-08-25T05:30:01.599Z,53.92
2018-08-25T05:30:33.193Z,54.00
2018-08-25T05:31:04.780Z,54.04
2018-08-25T05:31:36.383Z,54.12
2018-08-25T05:32:07.977Z,54.20
2018-08-25T05:32:39.604Z,54.21
2018-08-25T05:33:11.191Z,54.17
2018-08-25T05:33:42.784Z,54.15
2018-08-25T05:34:14.363Z,54.39
2018-08-25T05:34:45.944Z,54.25
2018-08-25T05:35:17.549Z,54.32
2018-08-25T05:35:49.136Z,54.37
2018-08-25T05:36:20.745Z,54.92
2018-08-25T05:36:52.390Z,54.45
2018-08-25T05:37:23.995Z,54.42
2018-08-25T05:37:55.639Z,54.29
2018-08-25T05:38:27.228Z,54.37
2018-08-25T05:38:58.831Z,54.47
2018-08-25T05:39:30.429Z,54.44
2018-08-25T05:40:02.038Z,54.41
2018-08-25T05:40:33.635Z,54.77
2018-08-25T05:41:05.223Z,55.15
2018-08-25T05:41:36.812Z,54.51
2018-08-25T05:42:08.400Z,54.52
2018-08-25T05:42:40.023Z,54.53
2018-08-25T05:43:11.609Z,54.71
2018-08-25T05:43:43.214Z,54.74
2018-08-25T05:44:14.826Z,54.59
2018-08-25T05:44:46.422Z,54.37
2018-08-25T05:45:18.032Z,54.60
2018-08-25T05:45:49.628Z,54.64
2018-08-25T05:46:21.221Z,54.70
2018-08-25T05:46:52.830Z,54.79
2018-08-25T05:47:24.430Z,54.79
2018-08-25T05:47:56.046Z,54.75
2018-08-25T05:48:27.636Z,54.81
2018-08-25T05:48:59.247Z,54.82
2018-08-25T05:49:30.849Z,54.90
2018-08-25T05:50:02.451Z,54.85
2018-08-25T05:50:34.049Z,54.73
2018-08-25T05:51:05.626Z,54.60
2018-08-25T05:51:37.232Z,54.92
2018-08-25T05:52:08.824Z,55.07
2018-08-25T05:52:40.452Z,54.86
2018-08-25T05:53:12.044Z,55.03
2018-08-25T05:53:43.680Z,54.83
2018-08-25T05:54:15.261Z,54.79
2018-08-25T05:54:46.838Z,54.85
2018-08-25T05:55:18.438Z,55.00
2018-08-25T05:55:50.027Z,55.15
2018-08-25T05:56:21.620Z,55.07
2018-08-25T05:56:53.222Z,55.11
2018-08-25T05:57:24.816Z,54.79
2018-08-25T05:57:56.395Z,54.82
2018-08-25T05:58:27.984Z,54.89
2018-08-25T05:58:59.611Z,54.87
2018-08-25T05:59:31.215Z,54.77
2018-08-25T06:00:02.808Z,56.01
2018-08-25T06:00:34.401Z,56.63
2018-08-25T06:01:06.002Z,57.43
2018-08-25T06:01:37.597Z,58.12
2018-08-25T06:02:09.188Z,58.34
2018-08-25T06:02:40.776Z,58.86
2018-08-25T06:03:12.378Z,59.15
2018-08-25T06:03:44.037Z,58.56
2018-08-25T06:04:15.678Z,57.89
2018-08-25T06:04:47.266Z,57.43
2018-08-25T06:05:18.856Z,57.11
2018-08-25T06:05:50.444Z,56.84
2018-08-25T06:06:22.058Z,56.48
2018-08-25T06:06:53.676Z,56.30
2018-08-25T06:07:25.278Z,56.18
2018-08-25T06:07:56.882Z,56.09
2018-08-25T06:08:28.477Z,55.94
2018-08-25T06:09:00.118Z,55.92
2018-08-25T06:09:31.699Z,55.87
2018-08-25T06:10:03.292Z,55.83
2018-08-25T06:10:34.898Z,55.81
2018-08-25T06:11:06.488Z,55.66
2018-08-25T06:11:38.080Z,55.63
2018-08-25T06:12:09.671Z,55.70
2018-08-25T06:12:41.280Z,55.60
2018-08-25T06:13:12.882Z,55.62
2018-08-25T06:13:44.518Z,55.64
2018-08-25T06:14:16.145Z,55.65
2018-08-25T06:14:47.730Z,55.67
2018-08-25T06:15:19.324Z,55.83
2018-08-25T06:15:50.926Z,55.94
2018-08-25T06:16:22.530Z,55.69
2018-08-25T06:16:54.114Z,55.73
2018-08-25T06:17:25.699Z,55.75
2018-08-25T06:17:57.288Z,55.89
2018-08-25T06:18:28.880Z,55.95
2018-08-25T06:19:00.473Z,56.06
2018-08-25T06:19:32.119Z,56.09
2018-08-25T06:20:03.711Z,56.17
2018-08-25T06:20:35.322Z,56.23
2018-08-25T06:21:06.902Z,56.19
2018-08-25T06:21:38.488Z,56.25
2018-08-25T06:22:10.091Z,56.14
2018-08-25T06:22:41.684Z,56.10
2018-08-25T06:23:13.276Z,56.08
2018-08-25T06:23:44.915Z,56.16
2018-08-25T06:24:16.505Z,55.94
2018-08-25T06:24:48.707Z,55.92
2018-08-25T06:25:20.374Z,55.85
2018-08-25T06:25:51.995Z,55.96
2018-08-25T06:26:23.586Z,55.83
2018-08-25T06:26:55.180Z,55.81
2018-08-25T06:27:26.764Z,55.80
2018-08-25T06:27:59.425Z,55.83
2018-08-25T06:28:31.009Z,55.81
2018-08-25T06:29:02.586Z,55.90
2018-08-25T06:29:34.284Z,55.90
2018-08-25T06:30:05.866Z,55.81
2018-08-25T06:30:37.479Z,55.74
2018-08-25T06:31:09.080Z,55.33
2018-08-25T06:31:40.688Z,55.24
2018-08-25T06:32:12.294Z,55.25
2018-08-25T06:32:43.899Z,55.21
2018-08-25T06:33:15.510Z,55.32
2018-08-25T06:33:47.110Z,55.45
2018-08-25T06:34:18.753Z,55.48
2018-08-25T06:34:50.358Z,55.61
2018-08-25T06:35:21.969Z,55.40
2018-08-25T06:35:53.619Z,55.43
2018-08-25T06:36:25.217Z,55.39
2018-08-25T06:36:56.822Z,55.30
2018-08-25T06:37:28.421Z,55.23
2018-08-25T06:38:00.091Z,55.22
2018-08-25T06:38:31.628Z,55.18
2018-08-25T06:39:03.216Z,55.03
2018-08-25T06:39:34.840Z,55.06
2018-08-25T06:40:06.443Z,55.05
2018-08-25T06:40:38.046Z,55.11
2018-08-25T06:41:09.650Z,55.24
2018-08-25T06:41:41.240Z,55.42
2018-08-25T06:42:12.832Z,55.39
2018-08-25T06:42:44.420Z,55.47
2018-08-25T06:43:15.998Z,55.22
2018-08-25T06:43:47.612Z,55.18
2018-08-25T06:44:19.249Z,55.21
2018-08-25T06:44:50.859Z,55.24
2018-08-25T06:45:22.461Z,55.40
2018-08-25T06:45:54.056Z,55.35
2018-08-25T06:46:25.649Z,55.33
2018-08-25T06:46:57.228Z,55.29